Time;durP1;ratioP1;P1;durP2;ratioP2;P2;SDS_P1;SDS_P2;PMS_P1;PMS_P2;Temp;Humidity;BMP_temperature;BMP_pressure;BME280_temperature;BME280_humidity;BME280_pressure;Samples;Min_cycle;Max_cycle;Signal;HPM_P1;HPM_P2
2023/08/09 00:01:29;;;;;;;3.20;1.98;;;16.80;99.90;;;;;;4975919;28;20223;-44
2023/08/09 00:03:54;;;;;;;2.38;1.70;;;16.80;99.90;;;;;;4976203;28;20238;-44
2023/08/09 00:06:20;;;;;;;1.98;1.77;;;16.80;99.90;;;;;;4993384;28;20203;-44
2023/08/09 00:08:46;;;;;;;1.70;1.60;;;16.80;99.90;;;;;;4976495;28;20184;-44
2023/08/09 00:11:12;;;;;;;2.03;1.77;;;16.70;99.90;;;;;;4975540;28;20225;-44
2023/08/09 00:13:38;;;;;;;2.33;1.70;;;16.70;99.90;;;;;;4972973;28;20188;-44
2023/08/09 00:16:04;;;;;;;3.60;1.98;;;16.80;99.90;;;;;;4973043;28;20185;-44
2023/08/09 00:18:29;;;;;;;4.53;2.03;;;16.80;99.90;;;;;;4972695;28;20223;-44
2023/08/09 00:20:55;;;;;;;2.25;2.05;;;16.80;99.90;;;;;;4973188;28;20187;-44
2023/08/09 00:23:21;;;;;;;3.23;1.70;;;16.80;99.90;;;;;;4976168;28;20215;-44
2023/08/09 00:25:47;;;;;;;2.33;1.80;;;16.80;99.90;;;;;;4975672;28;20188;-44
2023/08/09 00:28:13;;;;;;;3.70;2.08;;;16.80;99.90;;;;;;4991608;28;20191;-44
2023/08/09 00:30:39;;;;;;;1.92;1.60;;;16.80;99.90;;;;;;4981358;28;20192;-44
2023/08/09 05:03:47;;;;;;;2.37;1.80;;;16.00;99.90;;;;;;5036107;28;20271;-96
2023/08/09 05:06:13;;;;;;;2.30;1.83;;;16.00;99.90;;;;;;4993113;23;20236;-42
2023/08/09 05:08:39;;;;;;;3.93;1.90;;;15.90;99.90;;;;;;4962616;28;20207;-40
2023/08/09 05:11:05;;;;;;;2.03;1.60;;;15.90;99.90;;;;;;4971864;28;20192;-41
2023/08/09 05:13:31;;;;;;;3.67;1.70;;;15.80;99.90;;;;;;4987272;28;20195;-41
2023/08/09 05:15:56;;;;;;;4.97;1.80;;;15.70;99.90;;;;;;4990113;28;20286;-41
2023/08/09 05:18:22;;;;;;;2.53;1.90;;;15.60;99.90;;;;;;5018590;23;20247;-33
2023/08/09 05:20:48;;;;;;;3.00;1.60;;;15.60;99.90;;;;;;4994829;28;20265;-33
2023/08/09 05:23:14;;;;;;;2.67;2.00;;;15.60;99.90;;;;;;4999275;28;20172;-33
2023/08/09 05:25:40;;;;;;;2.10;1.53;;;15.60;99.90;;;;;;4987416;28;20182;-33
2023/08/09 05:28:05;;;;;;;3.57;2.00;;;15.70;99.90;;;;;;5002292;28;20199;-33
2023/08/09 05:30:31;;;;;;;2.00;1.80;;;15.70;99.90;;;;;;4994749;28;20272;-33
2023/08/09 05:32:58;;;;;;;2.10;1.57;;;15.70;99.90;;;;;;4997456;28;20182;-33
2023/08/09 05:35:26;;;;;;;2.13;1.63;;;15.80;99.90;;;;;;4986879;28;20329;-33
2023/08/09 05:37:52;;;;;;;1.97;1.60;;;15.80;99.90;;;;;;4985815;28;20226;-34
2023/08/09 05:40:19;;;;;;;3.17;1.90;;;15.90;99.90;;;;;;4991245;28;20230;-31
2023/08/09 05:42:44;;;;;;;2.83;1.70;;;15.90;99.90;;;;;;4986112;28;20175;-31
2023/08/09 05:45:10;;;;;;;2.47;1.60;;;16.00;99.90;;;;;;4985506;28;20179;-31
2023/08/09 05:47:36;;;;;;;2.07;1.50;;;16.10;99.90;;;;;;4998198;28;20206;-31
2023/08/09 05:50:03;;;;;;;2.20;1.97;;;16.20;99.90;;;;;;4985344;28;20185;-31
2023/08/09 05:52:29;;;;;;;2.20;1.60;;;16.30;99.90;;;;;;4981432;28;20254;-31
2023/08/09 05:54:55;;;;;;;1.60;1.50;;;16.30;99.90;;;;;;4986214;28;20664;-31
2023/08/09 05:57:21;;;;;;;2.55;1.60;;;16.40;99.90;;;;;;4986264;28;20199;-31
2023/08/09 05:59:46;;;;;;;4.83;1.43;;;16.40;99.90;;;;;;4990714;28;20207;-31
2023/08/09 06:02:12;;;;;;;2.40;1.80;;;16.50;99.90;;;;;;5026373;28;20176;-31
2023/08/09 06:04:39;;;;;;;2.70;1.60;;;16.60;99.90;;;;;;4982719;28;20193;-31
2023/08/09 06:07:05;;;;;;;3.15;1.80;;;16.60;99.90;;;;;;4988622;28;20244;-31
2023/08/09 06:09:31;;;;;;;2.07;1.33;;;16.70;99.90;;;;;;4980294;28;20206;-31
2023/08/09 06:11:57;;;;;;;2.90;1.70;;;16.80;99.90;;;;;;5009467;28;20183;-31
2023/08/09 06:14:23;;;;;;;2.80;1.60;;;16.80;99.90;;;;;;4979843;28;20230;-31
2023/08/09 06:16:50;;;;;;;2.22;1.63;;;16.90;99.90;;;;;;4991518;28;20207;-31
2023/08/09 06:19:17;;;;;;;1.53;1.40;;;16.90;99.90;;;;;;4976385;28;20199;-31
2023/08/09 06:21:43;;;;;;;3.63;1.88;;;17.00;99.90;;;;;;4976236;28;20171;-31
2023/08/09 06:24:10;;;;;;;1.85;1.40;;;17.00;99.90;;;;;;5028806;28;20180;-31
2023/08/09 06:26:36;;;;;;;4.40;1.50;;;17.00;99.90;;;;;;4977864;28;20226;-31
2023/08/09 06:29:02;;;;;;;2.10;1.80;;;17.10;99.90;;;;;;4976330;28;20237;-31
2023/08/09 06:31:28;;;;;;;2.65;1.58;;;17.10;99.90;;;;;;4990200;28;20183;-31
2023/08/09 06:33:54;;;;;;;1.90;1.60;;;17.10;99.90;;;;;;4991467;28;20224;-31
2023/08/09 06:36:20;;;;;;;2.17;1.60;;;17.20;99.90;;;;;;4988378;28;20178;-31
2023/08/09 06:38:46;;;;;;;4.13;1.88;;;17.20;99.90;;;;;;4994043;28;20214;-31
2023/08/09 06:41:12;;;;;;;4.05;1.63;;;17.20;99.90;;;;;;4974786;28;20186;-31
2023/08/09 06:43:38;;;;;;;5.10;1.90;;;17.20;99.90;;;;;;4977369;28;20406;-31
2023/08/09 06:46:04;;;;;;;3.17;1.73;;;17.40;99.90;;;;;;4977047;28;20208;-31
2023/08/09 06:48:31;;;;;;;3.70;1.63;;;17.40;99.90;;;;;;4977480;28;20202;-32
2023/08/09 06:50:58;;;;;;;5.18;1.90;;;17.50;99.90;;;;;;4977375;28;20208;-31
2023/08/09 06:53:24;;;;;;;5.97;1.80;;;17.60;99.90;;;;;;4973531;28;20176;-31
2023/08/09 06:55:50;;;;;;;7.43;1.60;;;17.60;99.90;;;;;;5021867;28;20206;-36
2023/08/09 06:58:16;;;;;;;4.95;1.70;;;17.70;99.90;;;;;;5012131;28;20217;-32
2023/08/09 07:00:42;;;;;;;2.35;1.30;;;17.70;99.90;;;;;;4978304;28;20179;-32
2023/08/09 07:03:07;;;;;;;5.55;1.67;;;17.70;99.90;;;;;;4994795;28;20175;-33
2023/08/09 07:05:33;;;;;;;3.97;1.60;;;17.80;99.90;;;;;;4976974;28;20233;-33
2023/08/09 07:07:59;;;;;;;4.03;1.40;;;17.80;99.90;;;;;;4976872;28;20195;-32
2023/08/09 07:10:25;;;;;;;1.83;1.50;;;17.90;99.90;;;;;;4979290;28;20252;-33
2023/08/09 07:12:51;;;;;;;2.72;1.55;;;18.00;99.90;;;;;;5012890;28;20209;-32
2023/08/09 07:15:17;;;;;;;4.30;1.80;;;18.00;99.90;;;;;;4996285;28;20181;-33
2023/08/09 07:17:43;;;;;;;2.80;1.70;;;18.10;99.90;;;;;;4996888;28;20210;-33
2023/08/09 07:20:11;;;;;;;2.15;1.70;;;18.10;99.90;;;;;;4997298;28;20175;-34
2023/08/09 07:22:38;;;;;;;2.40;1.45;;;18.10;99.90;;;;;;5005703;28;20207;-32
2023/08/09 07:25:05;;;;;;;2.45;1.67;;;18.10;99.90;;;;;;5000694;28;20278;-33
2023/08/09 07:27:32;;;;;;;3.03;1.40;;;18.00;99.90;;;;;;4980238;28;20203;-32
2023/08/09 07:29:58;;;;;;;2.13;1.45;;;18.10;99.90;;;;;;4980966;28;20190;-33
2023/08/09 07:32:24;;;;;;;2.35;1.50;;;18.10;99.90;;;;;;4997500;28;20186;-33
2023/08/09 07:34:50;;;;;;;2.30;1.58;;;18.20;99.90;;;;;;4980907;28;20183;-34
2023/08/09 07:37:16;;;;;;;2.83;1.75;;;18.20;99.90;;;;;;4980684;28;20199;-32
2023/08/09 07:39:42;;;;;;;1.83;1.40;;;18.20;99.90;;;;;;4981152;28;20293;-32
2023/08/09 07:42:10;;;;;;;2.17;1.40;;;18.30;99.90;;;;;;4980685;28;20184;-32
2023/08/09 07:44:37;;;;;;;3.72;1.45;;;18.30;99.90;;;;;;4980831;28;20261;-32
2023/08/09 07:47:03;;;;;;;4.07;1.70;;;18.30;99.90;;;;;;4981360;28;20205;-33
2023/08/09 07:49:29;;;;;;;2.10;1.50;;;18.40;99.90;;;;;;4981622;28;20179;-32
2023/08/09 07:51:56;;;;;;;1.83;1.50;;;18.40;99.90;;;;;;4994531;28;20185;-31
2023/08/09 07:54:23;;;;;;;2.72;1.42;;;18.50;99.90;;;;;;4995297;28;20191;-31
2023/08/09 07:56:49;;;;;;;1.83;1.45;;;18.50;99.90;;;;;;4980774;28;20265;-32
2023/08/09 07:59:14;;;;;;;1.88;1.48;;;18.50;99.90;;;;;;4981127;28;20210;-32
2023/08/09 08:01:40;;;;;;;3.17;1.52;;;18.50;99.90;;;;;;4997209;28;20187;-32
2023/08/09 08:04:06;;;;;;;2.03;1.58;;;18.60;99.90;;;;;;5004614;28;20179;-32
2023/08/09 08:06:33;;;;;;;2.45;1.40;;;18.70;99.90;;;;;;4980122;28;20250;-32
2023/08/09 08:09:00;;;;;;;2.53;1.40;;;18.80;99.90;;;;;;5012486;28;20211;-33
2023/08/09 08:11:25;;;;;;;2.38;1.65;;;18.90;99.90;;;;;;5004315;28;20187;-32
2023/08/09 08:13:51;;;;;;;2.20;1.33;;;19.10;99.90;;;;;;4993315;28;20189;-32
2023/08/09 08:16:17;;;;;;;2.60;1.40;;;19.20;99.90;;;;;;4974270;28;20179;-32
2023/08/09 08:18:43;;;;;;;2.60;1.65;;;19.30;99.90;;;;;;4995917;28;20211;-33
2023/08/09 08:21:13;;;;;;;3.67;1.60;;;19.30;99.90;;;;;;5007368;28;20184;-32
2023/08/09 08:23:41;;;;;;;2.88;1.48;;;19.30;99.90;;;;;;4985908;28;20273;-31
2023/08/09 08:26:09;;;;;;;3.03;1.42;;;19.30;99.90;;;;;;4999014;28;20297;-33
2023/08/09 08:28:38;;;;;;;2.78;1.88;;;19.40;99.90;;;;;;4999255;28;20252;-31
2023/08/09 08:31:05;;;;;;;1.60;1.50;;;19.50;99.90;;;;;;4998619;28;20182;-32
2023/08/09 08:33:31;;;;;;;2.50;1.45;;;19.50;99.90;;;;;;4998801;28;20232;-31
2023/08/09 08:35:59;;;;;;;1.95;1.55;;;19.60;99.90;;;;;;4998714;28;20269;-31
2023/08/09 08:38:24;;;;;;;1.67;1.30;;;19.60;99.90;;;;;;4998688;28;20218;-31
2023/08/09 08:40:52;;;;;;;2.33;1.50;;;19.70;99.90;;;;;;4998622;28;20189;-31
2023/08/09 08:43:17;;;;;;;3.17;1.60;;;19.80;99.90;;;;;;4998617;28;20178;-31
2023/08/09 08:45:47;;;;;;;3.63;1.40;;;20.00;99.90;;;;;;4998343;28;20177;-31
2023/08/09 08:48:13;;;;;;;2.22;1.48;;;20.00;99.90;;;;;;4998738;28;20210;-31
2023/08/09 08:50:41;;;;;;;2.28;1.60;;;20.00;99.90;;;;;;4998570;28;20290;-31
2023/08/09 08:53:08;;;;;;;2.00;1.27;;;20.00;99.90;;;;;;4986854;28;20233;-31
2023/08/09 08:55:34;;;;;;;2.97;1.50;;;20.10;99.90;;;;;;4986859;28;20190;-31
2023/08/09 08:58:00;;;;;;;1.98;1.55;;;20.00;99.90;;;;;;4978927;28;20266;-32
2023/08/09 09:00:26;;;;;;;4.20;1.48;;;20.10;99.90;;;;;;4978534;28;20183;-32
2023/08/09 09:02:52;;;;;;;3.55;1.40;;;20.10;99.90;;;;;;4994884;28;20210;-31
2023/08/09 09:05:18;;;;;;;1.75;1.60;;;20.20;99.90;;;;;;4978898;28;20175;-31
2023/08/09 09:07:46;;;;;;;3.92;1.50;;;20.20;99.90;;;;;;4994657;28;20258;-31
2023/08/09 09:10:12;;;;;;;2.70;1.40;;;20.20;99.90;;;;;;4995195;28;20184;-31
2023/08/09 09:12:42;;;;;;;4.25;1.80;;;20.10;99.90;;;;;;4978601;28;20219;-31
2023/08/09 09:15:09;;;;;;;2.42;1.52;;;20.10;99.90;;;;;;4978421;28;20179;-31
2023/08/09 09:17:42;;;;;;;2.50;1.42;;;20.00;99.90;;;;;;4978375;28;20219;-31
2023/08/09 09:20:29;;;;;;;2.17;1.58;;;20.00;99.90;;;;;;4978557;28;20226;-32
2023/08/09 09:22:55;;;;;;;2.63;1.55;;;20.00;99.90;;;;;;4980398;28;20274;-31
2023/08/09 09:25:25;;;;;;;2.20;1.60;;;20.00;99.90;;;;;;4983030;28;20187;-32
2023/08/09 09:27:56;;;;;;;3.50;1.30;;;20.00;99.90;;;;;;4981381;28;20191;-31
2023/08/09 09:30:31;;;;;;;2.17;1.80;;;19.90;99.90;;;;;;4978106;28;20215;-32
2023/08/09 09:33:00;;;;;;;2.80;1.42;;;19.90;99.90;;;;;;4979077;28;20186;-30
2023/08/09 09:35:32;;;;;;;2.75;1.48;;;19.90;99.90;;;;;;4979516;28;20191;-31
2023/08/09 09:38:04;;;;;;;1.30;1.13;;;19.90;99.90;;;;;;4989669;28;20198;-32
2023/08/09 09:40:33;;;;;;;2.95;1.50;;;19.90;99.90;;;;;;4985874;28;20211;-31
2023/08/09 09:43:01;;;;;;;2.53;1.45;;;19.90;99.90;;;;;;4985293;28;20261;-31
2023/08/09 09:45:32;;;;;;;1.83;1.23;;;20.00;99.90;;;;;;4989618;28;20179;-32
2023/08/09 09:48:01;;;;;;;2.72;1.80;;;20.10;99.90;;;;;;4982779;28;20202;-31
2023/08/09 09:50:31;;;;;;;1.70;1.50;;;20.30;99.90;;;;;;5002148;28;20170;-31
2023/08/09 09:52:59;;;;;;;2.67;1.45;;;20.40;99.90;;;;;;4986469;28;20206;-31
2023/08/09 09:55:29;;;;;;;2.55;1.60;;;20.50;99.90;;;;;;4997322;28;20186;-32
2023/08/09 09:57:59;;;;;;;1.67;1.52;;;20.50;99.90;;;;;;4987164;28;20191;-31
2023/08/09 10:00:27;;;;;;;2.53;1.50;;;20.60;99.90;;;;;;4988972;28;20201;-31
2023/08/09 10:02:56;;;;;;;2.70;1.73;;;20.60;99.90;;;;;;4987686;28;20266;-31
2023/08/09 10:05:43;;;;;;;2.55;1.50;;;20.50;99.90;;;;;;4983688;28;20186;-32
2023/08/09 10:08:12;;;;;;;2.30;1.70;;;20.60;99.90;;;;;;4989076;28;20213;-31
2023/08/09 10:10:45;;;;;;;2.03;1.55;;;20.60;99.90;;;;;;4995800;28;20186;-32
2023/08/09 10:13:26;;;;;;;2.97;1.83;;;20.70;99.90;;;;;;5002937;28;20174;-32
2023/08/09 10:16:05;;;;;;;5.57;1.67;;;20.60;99.90;;;;;;5020403;28;20194;-31
2023/08/09 10:18:40;;;;;;;2.33;1.67;;;20.60;99.90;;;;;;4988046;28;20210;-32
2023/08/09 10:21:14;;;;;;;2.95;1.38;;;20.60;99.90;;;;;;5003474;28;20233;-31
2023/08/09 10:23:59;;;;;;;2.47;1.50;;;20.60;99.90;;;;;;4978964;28;20198;-31
2023/08/09 10:26:32;;;;;;;2.90;1.90;;;20.60;99.90;;;;;;4989114;28;20178;-31
2023/08/09 10:29:10;;;;;;;2.95;1.73;;;20.70;99.90;;;;;;4996846;28;20186;-31
2023/08/09 10:31:48;;;;;;;3.53;1.52;;;20.80;99.90;;;;;;5013419;28;20186;-31
2023/08/09 10:34:18;;;;;;;4.47;2.22;;;20.90;99.90;;;;;;5012959;28;20205;-32
2023/08/09 10:36:55;;;;;;;2.33;1.80;;;21.00;99.90;;;;;;5007286;28;20191;-31
2023/08/09 10:39:22;;;;;;;3.60;1.95;;;21.20;99.90;;;;;;4985272;28;20198;-30
2023/08/09 10:42:15;;;;;;;1.65;1.50;;;21.20;99.90;;;;;;4993968;28;20186;-32
2023/08/09 10:44:44;;;;;;;3.92;1.80;;;21.30;99.90;;;;;;4994059;28;20175;-32
2023/08/09 10:47:20;;;;;;;3.25;1.73;;;21.40;99.90;;;;;;4987138;28;20191;-31
2023/08/09 10:49:55;;;;;;;3.33;1.77;;;21.50;99.90;;;;;;5000430;28;20209;-31
2023/08/09 10:52:31;;;;;;;2.65;1.88;;;21.60;99.90;;;;;;4989347;28;20555;-31
2023/08/09 10:55:24;;;;;;;2.85;1.80;;;21.70;99.90;;;;;;4975600;28;20274;-32
2023/08/09 10:57:51;;;;;;;3.58;1.88;;;21.80;99.90;;;;;;4994339;28;20227;-32
2023/08/09 11:00:19;;;;;;;2.35;1.60;;;21.90;99.90;;;;;;4985210;28;20179;-31
2023/08/09 11:03:04;;;;;;;3.95;2.17;;;22.00;99.90;;;;;;4977446;28;20218;-32
2023/08/09 11:05:30;;;;;;;2.65;1.70;;;22.00;99.90;;;;;;4997747;28;20186;-33
2023/08/09 11:07:59;;;;;;;4.10;2.00;;;22.10;99.90;;;;;;5025344;28;20289;-33
2023/08/09 11:10:36;;;;;;;1.88;1.40;;;22.10;99.90;;;;;;4999745;28;20171;-32
2023/08/09 11:13:04;;;;;;;3.28;1.85;;;22.20;99.90;;;;;;5000377;28;20221;-33
2023/08/09 11:15:32;;;;;;;2.72;1.70;;;22.30;99.90;;;;;;4990039;28;20179;-32
2023/08/09 11:17:57;;;;;;;2.67;1.70;;;22.00;99.90;;;;;;4982331;28;20214;-31
2023/08/09 11:20:24;;;;;;;3.13;1.75;;;21.80;99.90;;;;;;5001032;28;20182;-31
2023/08/09 11:22:55;;;;;;;2.78;1.80;;;21.70;99.90;;;;;;4992220;28;20179;-33
2023/08/09 11:25:22;;;;;;;1.77;1.35;;;21.50;99.90;;;;;;4986207;28;20179;-33
2023/08/09 11:27:55;;;;;;;2.10;1.50;;;21.50;99.90;;;;;;4989754;28;20187;-33
2023/08/09 11:30:23;;;;;;;4.40;2.00;;;21.60;99.90;;;;;;4987380;28;20175;-33
2023/08/09 11:32:57;;;;;;;3.33;1.70;;;21.70;99.90;;;;;;4980551;28;20179;-32
2023/08/09 11:35:32;;;;;;;2.85;1.95;;;21.80;99.90;;;;;;4976223;28;20262;-33
2023/08/09 11:37:59;;;;;;;3.20;1.73;;;21.90;99.90;;;;;;4983938;28;20248;-33
2023/08/09 11:40:26;;;;;;;2.83;1.60;;;22.00;99.90;;;;;;5001589;28;20183;-31
2023/08/09 11:42:58;;;;;;;1.98;1.60;;;21.90;99.90;;;;;;5012562;28;20178;-31
2023/08/09 11:45:24;;;;;;;2.22;1.88;;;21.90;99.90;;;;;;5017284;28;20171;-31
2023/08/09 11:47:52;;;;;;;2.55;1.80;;;21.90;99.90;;;;;;5010946;28;20195;-31
2023/08/09 11:50:25;;;;;;;1.95;1.73;;;22.00;99.90;;;;;;5017323;28;20178;-31
2023/08/09 11:52:52;;;;;;;3.78;1.95;;;22.10;99.90;;;;;;5007304;28;20191;-31
2023/08/09 11:55:18;;;;;;;2.10;1.85;;;22.10;99.90;;;;;;4997610;28;20211;-31
2023/08/09 11:57:44;;;;;;;2.30;1.85;;;22.20;99.90;;;;;;4981611;28;20211;-31
2023/08/09 12:00:12;;;;;;;2.53;1.60;;;22.30;99.90;;;;;;4981717;28;20290;-31
2023/08/09 12:02:38;;;;;;;4.00;1.75;;;22.30;99.90;;;;;;4981047;28;20179;-31
2023/08/09 12:05:12;;;;;;;2.88;1.70;;;22.20;99.90;;;;;;4980661;28;20262;-31
2023/08/09 12:07:37;;;;;;;2.35;1.98;;;22.30;99.90;;;;;;5013039;28;20218;-31
2023/08/09 12:10:08;;;;;;;3.67;2.20;;;22.40;99.90;;;;;;4997536;28;20175;-31
2023/08/09 12:12:41;;;;;;;3.65;1.85;;;22.50;99.90;;;;;;5012485;28;20183;-31
2023/08/09 12:15:10;;;;;;;1.92;1.80;;;22.60;99.90;;;;;;4979517;28;20217;-31
2023/08/09 12:17:39;;;;;;;2.65;1.88;;;22.60;99.90;;;;;;5013127;28;20219;-31
2023/08/09 12:20:07;;;;;;;4.40;1.83;;;22.70;99.90;;;;;;5009088;28;20211;-31
2023/08/09 12:22:33;;;;;;;1.80;1.45;;;22.70;99.90;;;;;;5006789;28;20214;-31
2023/08/09 12:24:59;;;;;;;2.22;1.67;;;22.70;99.90;;;;;;4980810;28;20199;-31
2023/08/09 12:27:26;;;;;;;5.07;1.92;;;22.90;99.90;;;;;;4996819;28;20195;-31
2023/08/09 12:29:53;;;;;;;2.38;1.52;;;23.10;99.90;;;;;;4997107;28;20274;-31
2023/08/09 12:32:21;;;;;;;2.85;1.60;;;23.30;99.90;;;;;;5013198;28;20185;-31
2023/08/09 12:34:49;;;;;;;2.45;1.67;;;23.50;99.90;;;;;;4996455;28;20241;-31
2023/08/09 12:37:18;;;;;;;2.95;1.70;;;23.40;99.90;;;;;;5013101;28;20234;-31
2023/08/09 12:39:45;;;;;;;4.38;1.70;;;23.40;99.90;;;;;;4996322;28;20239;-31
2023/08/09 12:42:13;;;;;;;3.05;1.88;;;23.40;99.90;;;;;;4996523;28;20233;-31
2023/08/09 12:44:40;;;;;;;2.03;1.50;;;23.30;99.90;;;;;;5012558;28;20205;-32
2023/08/09 12:47:07;;;;;;;2.25;1.52;;;23.20;99.90;;;;;;4983558;28;20210;-31
2023/08/09 12:49:34;;;;;;;2.00;1.75;;;22.90;99.90;;;;;;5015916;28;20256;-31
2023/08/09 12:52:06;;;;;;;3.38;1.58;;;22.70;99.90;;;;;;5012866;28;20195;-32
2023/08/09 12:54:32;;;;;;;3.20;1.60;;;22.70;99.90;;;;;;4993039;28;20182;-31
2023/08/09 12:56:59;;;;;;;4.57;1.85;;;22.60;99.90;;;;;;4999612;28;20198;-31
2023/08/09 12:59:26;;;;;;;3.22;1.80;;;22.60;99.90;;;;;;4995183;28;20207;-31
2023/08/09 13:01:52;;;;;;;4.68;1.95;;;22.60;99.90;;;;;;4996559;28;20183;-31
2023/08/09 13:04:23;;;;;;;1.75;1.65;;;22.50;99.90;;;;;;5036279;28;20262;-33
2023/08/09 13:06:52;;;;;;;3.50;1.60;;;22.50;99.90;;;;;;5011759;28;20277;-33
2023/08/09 13:09:18;;;;;;;1.80;1.65;;;22.40;99.90;;;;;;4990234;28;20261;-31
2023/08/09 13:11:47;;;;;;;5.25;1.67;;;22.40;99.90;;;;;;4992171;28;20210;-33
2023/08/09 13:14:13;;;;;;;2.50;1.88;;;22.40;99.90;;;;;;4997808;28;20273;-33
2023/08/09 13:16:39;;;;;;;3.13;1.88;;;22.30;99.90;;;;;;4997097;28;20225;-33
2023/08/09 13:19:06;;;;;;;2.28;1.55;;;22.30;99.90;;;;;;4998129;28;20198;-33
2023/08/09 13:21:32;;;;;;;3.75;2.03;;;22.20;99.90;;;;;;4997738;28;20285;-33
2023/08/09 13:23:59;;;;;;;3.65;2.30;;;22.20;99.90;;;;;;5000483;28;20250;-32
2023/08/09 13:26:29;;;;;;;6.68;2.50;;;22.20;99.90;;;;;;5001449;28;20185;-32
2023/08/09 13:28:57;;;;;;;2.75;1.73;;;22.10;99.90;;;;;;5016118;28;20209;-32
2023/08/09 13:31:23;;;;;;;5.38;2.15;;;22.00;99.90;;;;;;4985738;28;20182;-31
2023/08/09 13:33:49;;;;;;;6.13;2.72;;;21.90;99.90;;;;;;4993617;28;20179;-31
2023/08/09 13:36:16;;;;;;;2.80;2.33;;;21.80;99.90;;;;;;4987801;28;20179;-31
2023/08/09 13:38:43;;;;;;;5.45;3.35;;;21.70;99.90;;;;;;4986306;28;20198;-32
2023/08/09 13:41:10;;;;;;;3.63;2.70;;;21.70;99.90;;;;;;4988830;28;20183;-31
2023/08/09 13:43:37;;;;;;;2.78;2.15;;;21.70;99.90;;;;;;4982089;28;20207;-32
2023/08/09 13:46:05;;;;;;;7.90;3.47;;;21.60;99.90;;;;;;4986226;28;20245;-32
2023/08/09 13:48:31;;;;;;;7.15;4.10;;;21.60;99.90;;;;;;4986066;28;20293;-32
2023/08/09 13:50:57;;;;;;;11.55;6.30;;;21.50;99.90;;;;;;4988110;28;20254;-31
2023/08/09 13:53:23;;;;;;;3.05;2.25;;;21.50;99.90;;;;;;4986377;28;20258;-31
2023/08/09 13:55:50;;;;;;;4.55;2.42;;;21.50;99.90;;;;;;4985892;28;20187;-32
2023/08/09 13:58:19;;;;;;;2.50;1.88;;;21.50;99.90;;;;;;4987909;28;20258;-32
2023/08/09 14:00:47;;;;;;;4.20;2.00;;;21.50;99.90;;;;;;4987517;28;20179;-32
2023/08/09 14:03:13;;;;;;;4.82;2.50;;;21.40;99.90;;;;;;4982800;28;20246;-32
2023/08/09 14:05:39;;;;;;;1.88;1.60;;;21.40;99.90;;;;;;4977781;28;20618;-32
2023/08/09 14:08:06;;;;;;;6.28;4.40;;;21.30;99.90;;;;;;4993872;28;20207;-31
2023/08/09 14:10:32;;;;;;;3.25;2.05;;;21.40;99.90;;;;;;4990983;28;20194;-33
2023/08/09 14:12:58;;;;;;;3.20;2.10;;;21.40;99.90;;;;;;4977827;28;20179;-31
2023/08/09 14:15:26;;;;;;;2.33;2.05;;;21.40;99.90;;;;;;4977118;28;20182;-32
2023/08/09 14:17:55;;;;;;;2.72;2.33;;;21.40;99.90;;;;;;4978474;28;20230;-32
2023/08/09 14:20:22;;;;;;;2.25;1.98;;;21.50;99.90;;;;;;4985794;28;20306;-32
2023/08/09 14:22:49;;;;;;;3.08;1.92;;;21.60;99.90;;;;;;4979518;28;20186;-32
2023/08/09 14:25:17;;;;;;;3.78;2.15;;;21.80;99.90;;;;;;4982188;28;20668;-32
2023/08/09 14:27:46;;;;;;;2.83;2.08;;;21.80;99.90;;;;;;5001020;28;20203;-31
2023/08/09 14:30:13;;;;;;;3.65;1.90;;;22.00;99.90;;;;;;4979773;28;20184;-32
2023/08/09 14:32:40;;;;;;;2.50;2.15;;;22.00;99.90;;;;;;4989094;28;20193;-31
2023/08/09 14:35:09;;;;;;;4.57;2.17;;;22.00;99.90;;;;;;4984621;28;20241;-32
2023/08/09 14:37:36;;;;;;;4.35;2.20;;;22.10;99.90;;;;;;4987854;28;20203;-32
2023/08/09 14:40:06;;;;;;;2.78;1.90;;;22.00;99.90;;;;;;4980580;28;20261;-32
2023/08/09 14:42:38;;;;;;;2.10;1.90;;;22.00;99.90;;;;;;4977734;28;20176;-31
2023/08/09 14:45:05;;;;;;;2.85;1.80;;;22.10;99.90;;;;;;4980302;28;20201;-32
2023/08/09 14:47:31;;;;;;;5.07;2.42;;;22.10;99.90;;;;;;5000219;28;20198;-32
2023/08/09 14:49:58;;;;;;;3.08;2.10;;;22.10;99.90;;;;;;5010752;28;20212;-32
2023/08/09 14:52:23;;;;;;;2.53;1.90;;;22.10;99.90;;;;;;5014416;28;20233;-32
2023/08/09 14:54:51;;;;;;;4.13;2.00;;;22.10;99.90;;;;;;5013672;28;20183;-32
2023/08/09 14:57:17;;;;;;;2.08;1.88;;;22.10;99.90;;;;;;5013736;28;20203;-31
2023/08/09 14:59:44;;;;;;;3.63;2.00;;;22.00;99.90;;;;;;4981232;28;20203;-31
2023/08/09 15:02:09;;;;;;;4.30;2.22;;;22.10;99.90;;;;;;4997379;28;20175;-31
2023/08/09 15:04:36;;;;;;;3.72;1.95;;;22.20;99.90;;;;;;5029901;28;20189;-32
2023/08/09 15:07:02;;;;;;;3.35;1.90;;;22.30;99.90;;;;;;4997007;28;20207;-32
2023/08/09 15:09:29;;;;;;;3.83;2.25;;;22.50;99.90;;;;;;4980698;28;20189;-32
2023/08/09 15:11:55;;;;;;;6.53;2.10;;;22.60;99.90;;;;;;4980686;28;20191;-32
2023/08/09 15:14:21;;;;;;;4.38;2.00;;;22.80;99.90;;;;;;4981182;28;20179;-32
2023/08/09 15:16:47;;;;;;;2.92;1.83;;;22.90;99.90;;;;;;4980434;28;20219;-32
2023/08/09 15:19:13;;;;;;;3.47;1.98;;;23.10;99.90;;;;;;4980052;28;20215;-32
2023/08/09 15:21:39;;;;;;;2.78;2.03;;;23.10;99.90;;;;;;4980814;28;20180;-32
2023/08/09 15:24:05;;;;;;;3.53;2.03;;;23.20;99.90;;;;;;4980679;28;20182;-32
2023/08/09 15:26:31;;;;;;;4.55;2.25;;;23.20;99.90;;;;;;4980410;28;20186;-32
2023/08/09 15:28:57;;;;;;;3.47;2.00;;;23.20;99.90;;;;;;4996678;28;20274;-33
2023/08/09 15:31:23;;;;;;;2.10;1.90;;;23.00;99.90;;;;;;4979223;28;20266;-32
2023/08/09 15:33:50;;;;;;;3.35;2.17;;;22.90;99.90;;;;;;4980699;28;20183;-31
2023/08/09 15:36:16;;;;;;;4.95;1.85;;;22.90;99.90;;;;;;4980366;28;20231;-32
2023/08/09 15:38:42;;;;;;;4.00;2.15;;;22.90;99.90;;;;;;4979898;28;20238;-32
2023/08/09 15:41:09;;;;;;;4.25;2.25;;;22.90;99.90;;;;;;4980321;28;20179;-31
2023/08/09 15:43:35;;;;;;;3.95;2.38;;;22.80;99.90;;;;;;4980461;28;20183;-32
2023/08/09 15:46:02;;;;;;;4.65;2.30;;;22.80;99.90;;;;;;4979884;28;20183;-31
2023/08/09 15:48:31;;;;;;;9.20;1.98;;;22.90;99.90;;;;;;4979909;28;20309;-32
2023/08/09 15:50:57;;;;;;;2.30;2.10;;;22.80;99.90;;;;;;4980456;28;20194;-32
2023/08/09 15:53:24;;;;;;;2.40;2.20;;;22.90;99.90;;;;;;4980412;28;20239;-30
2023/08/09 15:55:50;;;;;;;3.20;2.05;;;22.70;99.90;;;;;;4979885;28;20191;-31
2023/08/09 15:58:15;;;;;;;5.75;2.30;;;22.60;99.90;;;;;;4980029;28;20214;-32
2023/08/09 16:00:42;;;;;;;3.67;2.10;;;22.60;99.90;;;;;;4979979;28;20171;-32
2023/08/09 16:03:08;;;;;;;4.03;2.03;;;22.60;99.90;;;;;;4979727;28;20190;-32
2023/08/09 16:05:34;;;;;;;3.25;1.70;;;22.60;99.90;;;;;;4979927;28;20179;-32
2023/08/09 16:08:00;;;;;;;4.50;2.33;;;22.60;99.90;;;;;;4979492;28;20207;-31
2023/08/09 16:10:26;;;;;;;3.78;2.10;;;22.60;99.90;;;;;;4995885;28;20195;-31
2023/08/09 16:12:52;;;;;;;2.80;1.80;;;22.60;99.90;;;;;;4996012;28;20708;-32
2023/08/09 16:15:18;;;;;;;3.72;2.10;;;22.50;99.90;;;;;;4995936;28;20183;-32
2023/08/09 16:17:43;;;;;;;2.80;1.90;;;22.50;99.90;;;;;;4979563;28;20257;-31
2023/08/09 16:20:12;;;;;;;3.05;2.20;;;22.50;99.90;;;;;;4979742;28;20210;-32
2023/08/09 16:22:39;;;;;;;3.50;2.00;;;22.50;99.90;;;;;;4979478;28;20175;-31
2023/08/09 16:25:06;;;;;;;3.30;1.80;;;22.50;99.90;;;;;;4979621;28;20187;-31
2023/08/09 16:27:33;;;;;;;3.38;1.90;;;22.50;99.90;;;;;;4979699;28;20204;-31
2023/08/09 16:29:59;;;;;;;2.95;1.98;;;22.60;99.90;;;;;;4979472;28;20230;-32
2023/08/09 16:32:25;;;;;;;5.13;2.03;;;22.60;99.90;;;;;;4979618;28;20179;-32
2023/08/09 16:34:51;;;;;;;2.70;1.75;;;22.60;99.90;;;;;;4979034;28;20688;-32
2023/08/09 16:37:17;;;;;;;4.97;2.05;;;22.60;99.90;;;;;;4995265;28;20203;-32
2023/08/09 16:39:42;;;;;;;3.97;2.08;;;22.60;99.90;;;;;;4979020;28;20215;-31
2023/08/09 16:42:10;;;;;;;3.67;1.90;;;22.60;99.90;;;;;;4979355;28;20213;-31
2023/08/09 16:44:36;;;;;;;3.67;1.92;;;22.60;99.90;;;;;;4979107;28;20172;-31
2023/08/09 16:47:01;;;;;;;2.50;1.75;;;22.40;99.90;;;;;;4979317;28;20206;-30
2023/08/09 16:49:27;;;;;;;2.42;1.98;;;22.40;99.90;;;;;;4979023;28;20631;-31
2023/08/09 16:51:54;;;;;;;2.55;1.80;;;22.30;99.90;;;;;;4979068;28;20187;-31
2023/08/09 16:54:19;;;;;;;2.17;1.75;;;22.30;99.90;;;;;;4979010;28;20180;-32
2023/08/09 16:56:46;;;;;;;1.95;1.65;;;22.30;99.90;;;;;;4978190;28;20206;-30
2023/08/09 16:59:12;;;;;;;3.42;2.00;;;22.20;99.90;;;;;;4978034;28;20226;-31
2023/08/09 17:01:38;;;;;;;3.67;2.00;;;22.10;99.90;;;;;;4978652;28;20175;-31
2023/08/09 17:04:04;;;;;;;3.00;1.90;;;22.00;99.90;;;;;;4978955;28;20266;-31
2023/08/09 17:06:30;;;;;;;2.58;1.75;;;22.00;99.90;;;;;;4978673;28;20175;-31
2023/08/09 17:08:56;;;;;;;2.05;1.55;;;21.90;99.90;;;;;;4978450;28;20190;-31
2023/08/09 17:11:22;;;;;;;3.45;2.05;;;21.90;99.90;;;;;;4978982;28;20187;-32
2023/08/09 17:13:48;;;;;;;4.43;2.10;;;21.80;99.90;;;;;;4978722;28;20183;-31
2023/08/09 17:16:15;;;;;;;3.25;2.67;;;21.80;99.90;;;;;;4978289;28;20280;-31
2023/08/09 17:18:41;;;;;;;8.13;6.32;;;21.80;99.90;;;;;;5878252;23;20224;-29
2023/08/09 17:21:08;;;;;;;4.75;2.30;;;21.80;99.90;;;;;;4958839;28;20274;-30